sensor_id;sensor_type;location;lat;lon;timestamp;P1;durP1;ratioP1;P2;durP2;ratioP2
13801;SDS011;6972;51.518;6.918;2022-09-09T00:04:42;2.00;;;1.20;;
13801;SDS011;6972;51.518;6.918;2022-09-09T00:15:21;4.32;;;1.80;;
13801;SDS011;6972;51.518;6.918;2022-09-09T00:20:19;2.63;;;1.50;;
13801;SDS011;6972;51.518;6.918;2022-09-09T00:23:04;3.58;;;1.50;;
13801;SDS011;6972;51.518;6.918;2022-09-09T00:25:40;6.50;;;1.67;;
13801;SDS011;6972;51.518;6.918;2022-09-09T00:28:22;2.42;;;1.10;;
13801;SDS011;6972;51.518;6.918;2022-09-09T00:30:49;2.60;;;1.30;;
13801;SDS011;6972;51.518;6.918;2022-09-09T00:33:16;3.63;;;1.40;;
13801;SDS011;6972;51.518;6.918;2022-09-09T00:35:52;5.30;;;1.27;;
13801;SDS011;6972;51.518;6.918;2022-09-09T00:38:32;2.97;;;1.30;;
13801;SDS011;6972;51.518;6.918;2022-09-09T00:51:08;2.75;;;1.17;;
13801;SDS011;6972;51.518;6.918;2022-09-09T00:53:56;4.97;;;1.40;;
13801;SDS011;6972;51.518;6.918;2022-09-09T00:56:48;3.80;;;1.10;;
13801;SDS011;6972;51.518;6.918;2022-09-09T01:02:18;2.28;;;1.30;;
13801;SDS011;6972;51.518;6.918;2022-09-09T01:05:12;3.22;;;1.30;;
13801;SDS011;6972;51.518;6.918;2022-09-09T01:07:44;3.67;;;1.20;;
13801;SDS011;6972;51.518;6.918;2022-09-09T01:10:30;3.65;;;1.20;;
13801;SDS011;6972;51.518;6.918;2022-09-09T01:13:08;2.65;;;1.20;;
13801;SDS011;6972;51.518;6.918;2022-09-09T01:15:42;2.58;;;1.30;;
13801;SDS011;6972;51.518;6.918;2022-09-09T01:18:12;3.30;;;1.27;;
13801;SDS011;6972;51.518;6.918;2022-09-09T01:28:48;2.00;;;1.27;;
13801;SDS011;6972;51.518;6.918;2022-09-09T01:31:19;1.85;;;1.20;;
13801;SDS011;6972;51.518;6.918;2022-09-09T01:33:47;2.47;;;1.38;;
13801;SDS011;6972;51.518;6.918;2022-09-09T01:36:16;3.33;;;1.45;;
13801;SDS011;6972;51.518;6.918;2022-09-09T01:38:51;3.00;;;1.20;;
13801;SDS011;6972;51.518;6.918;2022-09-09T01:41:18;2.50;;;1.13;;
13801;SDS011;6972;51.518;6.918;2022-09-09T01:43:47;6.07;;;1.50;;
13801;SDS011;6972;51.518;6.918;2022-09-09T01:46:13;5.50;;;1.45;;
13801;SDS011;6972;51.518;6.918;2022-09-09T01:48:38;3.72;;;1.48;;
13801;SDS011;6972;51.518;6.918;2022-09-09T01:51:05;4.70;;;1.70;;
13801;SDS011;6972;51.518;6.918;2022-09-09T01:53:30;1.73;;;1.15;;
13801;SDS011;6972;51.518;6.918;2022-09-09T01:56:13;3.13;;;1.60;;
13801;SDS011;6972;51.518;6.918;2022-09-09T02:04:14;4.90;;;1.60;;
13801;SDS011;6972;51.518;6.918;2022-09-09T02:06:46;2.92;;;1.50;;
13801;SDS011;6972;51.518;6.918;2022-09-09T02:09:15;3.20;;;1.55;;
13801;SDS011;6972;51.518;6.918;2022-09-09T02:11:46;4.43;;;1.58;;
13801;SDS011;6972;51.518;6.918;2022-09-09T02:14:17;5.53;;;1.80;;
13801;SDS011;6972;51.518;6.918;2022-09-09T02:16:59;1.92;;;1.25;;
13801;SDS011;6972;51.518;6.918;2022-09-09T02:19:37;4.65;;;1.38;;
13801;SDS011;6972;51.518;6.918;2022-09-09T02:22:09;5.32;;;1.50;;
13801;SDS011;6972;51.518;6.918;2022-09-09T02:24:36;2.78;;;1.40;;
13801;SDS011;6972;51.518;6.918;2022-09-09T02:27:06;4.03;;;1.50;;
13801;SDS011;6972;51.518;6.918;2022-09-09T02:29:34;5.30;;;1.50;;
13801;SDS011;6972;51.518;6.918;2022-09-09T02:32:17;3.30;;;1.33;;
13801;SDS011;6972;51.518;6.918;2022-09-09T02:35:06;3.72;;;1.20;;
13801;SDS011;6972;51.518;6.918;2022-09-09T02:37:36;3.08;;;1.48;;
13801;SDS011;6972;51.518;6.918;2022-09-09T02:40:07;4.35;;;1.50;;
13801;SDS011;6972;51.518;6.918;2022-09-09T02:42:40;1.33;;;1.15;;
13801;SDS011;6972;51.518;6.918;2022-09-09T02:45:08;4.00;;;1.88;;
13801;SDS011;6972;51.518;6.918;2022-09-09T02:47:37;3.55;;;1.50;;
13801;SDS011;6972;51.518;6.918;2022-09-09T02:50:33;2.88;;;1.40;;
13801;SDS011;6972;51.518;6.918;2022-09-09T02:53:16;4.97;;;1.55;;
13801;SDS011;6972;51.518;6.918;2022-09-09T02:55:53;2.95;;;1.48;;
13801;SDS011;6972;51.518;6.918;2022-09-09T02:58:20;3.95;;;1.67;;
13801;SDS011;6972;51.518;6.918;2022-09-09T03:00:47;5.20;;;1.58;;
13801;SDS011;6972;51.518;6.918;2022-09-09T03:03:14;4.38;;;1.50;;
13801;SDS011;6972;51.518;6.918;2022-09-09T03:05:41;3.80;;;1.60;;
13801;SDS011;6972;51.518;6.918;2022-09-09T03:08:08;5.05;;;1.42;;
13801;SDS011;6972;51.518;6.918;2022-09-09T03:10:34;2.63;;;1.52;;
13801;SDS011;6972;51.518;6.918;2022-09-09T03:13:00;9.05;;;1.88;;
13801;SDS011;6972;51.518;6.918;2022-09-09T03:15:26;4.55;;;1.58;;
13801;SDS011;6972;51.518;6.918;2022-09-09T03:17:56;7.28;;;1.67;;
13801;SDS011;6972;51.518;6.918;2022-09-09T03:20:22;6.20;;;1.52;;
13801;SDS011;6972;51.518;6.918;2022-09-09T03:22:49;7.45;;;1.73;;
13801;SDS011;6972;51.518;6.918;2022-09-09T03:25:15;4.97;;;1.70;;
13801;SDS011;6972;51.518;6.918;2022-09-09T03:27:41;4.60;;;1.80;;
13801;SDS011;6972;51.518;6.918;2022-09-09T03:30:07;2.75;;;1.55;;
13801;SDS011;6972;51.518;6.918;2022-09-09T03:32:33;2.97;;;1.58;;
13801;SDS011;6972;51.518;6.918;2022-09-09T03:34:58;4.68;;;1.90;;
13801;SDS011;6972;51.518;6.918;2022-09-09T03:37:24;7.47;;;1.92;;
13801;SDS011;6972;51.518;6.918;2022-09-09T03:39:50;4.75;;;1.95;;
13801;SDS011;6972;51.518;6.918;2022-09-09T03:42:21;4.93;;;1.90;;
13801;SDS011;6972;51.518;6.918;2022-09-09T03:44:47;4.25;;;1.50;;
13801;SDS011;6972;51.518;6.918;2022-09-09T03:47:15;3.60;;;1.80;;
13801;SDS011;6972;51.518;6.918;2022-09-09T03:49:47;4.00;;;1.40;;
13801;SDS011;6972;51.518;6.918;2022-09-09T03:52:13;3.17;;;1.70;;
13801;SDS011;6972;51.518;6.918;2022-09-09T03:54:39;6.15;;;1.98;;
13801;SDS011;6972;51.518;6.918;2022-09-09T03:57:06;4.50;;;1.67;;
13801;SDS011;6972;51.518;6.918;2022-09-09T03:59:32;4.53;;;1.80;;
13801;SDS011;6972;51.518;6.918;2022-09-09T04:01:59;4.30;;;1.83;;
13801;SDS011;6972;51.518;6.918;2022-09-09T04:04:26;7.00;;;1.80;;
13801;SDS011;6972;51.518;6.918;2022-09-09T04:06:52;5.55;;;2.10;;
13801;SDS011;6972;51.518;6.918;2022-09-09T04:09:21;6.55;;;1.63;;
13801;SDS011;6972;51.518;6.918;2022-09-09T04:11:46;5.00;;;1.75;;
13801;SDS011;6972;51.518;6.918;2022-09-09T04:14:13;4.35;;;1.83;;
13801;SDS011;6972;51.518;6.918;2022-09-09T04:16:39;4.43;;;2.03;;
13801;SDS011;6972;51.518;6.918;2022-09-09T04:19:08;6.65;;;1.80;;
13801;SDS011;6972;51.518;6.918;2022-09-09T04:21:37;7.63;;;1.50;;
13801;SDS011;6972;51.518;6.918;2022-09-09T04:24:04;7.53;;;1.98;;
13801;SDS011;6972;51.518;6.918;2022-09-09T04:26:31;7.70;;;1.95;;
13801;SDS011;6972;51.518;6.918;2022-09-09T04:28:56;4.95;;;1.90;;
13801;SDS011;6972;51.518;6.918;2022-09-09T04:31:22;8.68;;;2.10;;
13801;SDS011;6972;51.518;6.918;2022-09-09T04:33:52;6.32;;;1.85;;
13801;SDS011;6972;51.518;6.918;2022-09-09T04:36:17;5.47;;;2.03;;
13801;SDS011;6972;51.518;6.918;2022-09-09T04:38:47;8.05;;;2.25;;
13801;SDS011;6972;51.518;6.918;2022-09-09T04:41:14;5.88;;;2.00;;
13801;SDS011;6972;51.518;6.918;2022-09-09T04:43:41;7.55;;;2.10;;
13801;SDS011;6972;51.518;6.918;2022-09-09T04:46:07;5.03;;;2.10;;
13801;SDS011;6972;51.518;6.918;2022-09-09T04:48:33;5.45;;;1.80;;
13801;SDS011;6972;51.518;6.918;2022-09-09T04:53:25;7.18;;;1.98;;
13801;SDS011;6972;51.518;6.918;2022-09-09T04:55:52;12.52;;;2.28;;
13801;SDS011;6972;51.518;6.918;2022-09-09T04:58:27;6.85;;;2.20;;
13801;SDS011;6972;51.518;6.918;2022-09-09T05:00:53;6.90;;;2.05;;
13801;SDS011;6972;51.518;6.918;2022-09-09T05:03:18;4.70;;;1.95;;
13801;SDS011;6972;51.518;6.918;2022-09-09T05:05:44;9.63;;;2.22;;
13801;SDS011;6972;51.518;6.918;2022-09-09T05:08:10;9.20;;;1.85;;
13801;SDS011;6972;51.518;6.918;2022-09-09T05:10:37;4.82;;;1.77;;
13801;SDS011;6972;51.518;6.918;2022-09-09T05:13:04;7.72;;;1.73;;
13801;SDS011;6972;51.518;6.918;2022-09-09T05:15:31;8.55;;;1.98;;
13801;SDS011;6972;51.518;6.918;2022-09-09T05:17:58;7.78;;;2.10;;
13801;SDS011;6972;51.518;6.918;2022-09-09T05:20:25;4.00;;;1.70;;
13801;SDS011;6972;51.518;6.918;2022-09-09T05:22:54;6.25;;;2.65;;
13801;SDS011;6972;51.518;6.918;2022-09-09T05:25:20;12.00;;;2.55;;
13801;SDS011;6972;51.518;6.918;2022-09-09T05:27:47;6.25;;;2.10;;
13801;SDS011;6972;51.518;6.918;2022-09-09T05:30:12;8.77;;;2.20;;
13801;SDS011;6972;51.518;6.918;2022-09-09T05:32:39;5.50;;;2.03;;
13801;SDS011;6972;51.518;6.918;2022-09-09T05:35:05;4.40;;;1.83;;
13801;SDS011;6972;51.518;6.918;2022-09-09T05:37:31;6.97;;;2.00;;
13801;SDS011;6972;51.518;6.918;2022-09-09T05:39:56;8.90;;;2.45;;
13801;SDS011;6972;51.518;6.918;2022-09-09T05:42:23;6.32;;;2.25;;
13801;SDS011;6972;51.518;6.918;2022-09-09T05:44:49;6.03;;;2.00;;
13801;SDS011;6972;51.518;6.918;2022-09-09T05:47:16;8.77;;;2.10;;
13801;SDS011;6972;51.518;6.918;2022-09-09T05:49:42;10.13;;;2.22;;
13801;SDS011;6972;51.518;6.918;2022-09-09T05:52:08;5.22;;;1.80;;
13801;SDS011;6972;51.518;6.918;2022-09-09T05:54:34;7.38;;;2.00;;
13801;SDS011;6972;51.518;6.918;2022-09-09T05:57:02;11.73;;;2.40;;
13801;SDS011;6972;51.518;6.918;2022-09-09T05:59:28;12.52;;;2.30;;
13801;SDS011;6972;51.518;6.918;2022-09-09T06:01:54;8.25;;;2.47;;
13801;SDS011;6972;51.518;6.918;2022-09-09T06:04:20;8.77;;;2.08;;
13801;SDS011;6972;51.518;6.918;2022-09-09T06:06:47;7.25;;;2.10;;
13801;SDS011;6972;51.518;6.918;2022-09-09T06:09:13;8.02;;;2.35;;
13801;SDS011;6972;51.518;6.918;2022-09-09T06:11:40;9.57;;;2.47;;
13801;SDS011;6972;51.518;6.918;2022-09-09T06:14:06;9.60;;;2.40;;
13801;SDS011;6972;51.518;6.918;2022-09-09T06:16:32;8.38;;;2.10;;
13801;SDS011;6972;51.518;6.918;2022-09-09T06:18:59;7.30;;;1.98;;
13801;SDS011;6972;51.518;6.918;2022-09-09T06:21:32;10.23;;;2.40;;
13801;SDS011;6972;51.518;6.918;2022-09-09T06:24:02;7.07;;;1.98;;
13801;SDS011;6972;51.518;6.918;2022-09-09T06:26:32;7.28;;;2.35;;
13801;SDS011;6972;51.518;6.918;2022-09-09T06:28:59;8.40;;;2.38;;
13801;SDS011;6972;51.518;6.918;2022-09-09T06:31:29;5.80;;;2.30;;
13801;SDS011;6972;51.518;6.918;2022-09-09T06:33:56;6.10;;;2.08;;
13801;SDS011;6972;51.518;6.918;2022-09-09T06:36:27;9.88;;;2.75;;
13801;SDS011;6972;51.518;6.918;2022-09-09T06:38:54;17.90;;;2.92;;
13801;SDS011;6972;51.518;6.918;2022-09-09T06:41:21;16.95;;;2.88;;
13801;SDS011;6972;51.518;6.918;2022-09-09T06:43:48;13.13;;;2.80;;
13801;SDS011;6972;51.518;6.918;2022-09-09T06:46:18;13.85;;;2.85;;
13801;SDS011;6972;51.518;6.918;2022-09-09T06:48:44;8.10;;;2.38;;
13801;SDS011;6972;51.518;6.918;2022-09-09T06:51:11;19.85;;;2.63;;
13801;SDS011;6972;51.518;6.918;2022-09-09T06:53:49;10.98;;;2.10;;
13801;SDS011;6972;51.518;6.918;2022-09-09T06:58:42;10.40;;;2.15;;
13801;SDS011;6972;51.518;6.918;2022-09-09T07:01:09;8.57;;;2.10;;
13801;SDS011;6972;51.518;6.918;2022-09-09T07:03:37;9.82;;;2.80;;
13801;SDS011;6972;51.518;6.918;2022-09-09T07:06:03;9.35;;;2.35;;
13801;SDS011;6972;51.518;6.918;2022-09-09T07:08:30;10.60;;;2.20;;
13801;SDS011;6972;51.518;6.918;2022-09-09T07:11:02;13.23;;;2.38;;
13801;SDS011;6972;51.518;6.918;2022-09-09T07:13:29;13.82;;;2.30;;
13801;SDS011;6972;51.518;6.918;2022-09-09T07:16:02;6.93;;;2.35;;
13801;SDS011;6972;51.518;6.918;2022-09-09T07:18:32;12.80;;;2.42;;
13801;SDS011;6972;51.518;6.918;2022-09-09T07:20:58;7.40;;;2.45;;
13801;SDS011;6972;51.518;6.918;2022-09-09T07:23:24;7.97;;;2.13;;
13801;SDS011;6972;51.518;6.918;2022-09-09T07:25:51;10.68;;;2.08;;
13801;SDS011;6972;51.518;6.918;2022-09-09T07:28:18;8.23;;;2.10;;
13801;SDS011;6972;51.518;6.918;2022-09-09T07:30:52;7.60;;;2.45;;
13801;SDS011;6972;51.518;6.918;2022-09-09T07:33:19;7.35;;;1.83;;
13801;SDS011;6972;51.518;6.918;2022-09-09T07:35:45;10.57;;;2.35;;
13801;SDS011;6972;51.518;6.918;2022-09-09T07:38:11;7.53;;;2.38;;
13801;SDS011;6972;51.518;6.918;2022-09-09T07:40:37;4.75;;;1.98;;
13801;SDS011;6972;51.518;6.918;2022-09-09T07:43:04;8.57;;;2.15;;
13801;SDS011;6972;51.518;6.918;2022-09-09T07:45:30;11.32;;;2.60;;
13801;SDS011;6972;51.518;6.918;2022-09-09T07:47:58;6.93;;;2.03;;
13801;SDS011;6972;51.518;6.918;2022-09-09T07:50:24;6.25;;;2.20;;
13801;SDS011;6972;51.518;6.918;2022-09-09T07:52:51;7.28;;;2.25;;
13801;SDS011;6972;51.518;6.918;2022-09-09T07:55:17;10.55;;;2.05;;
13801;SDS011;6972;51.518;6.918;2022-09-09T07:57:43;6.53;;;1.98;;
13801;SDS011;6972;51.518;6.918;2022-09-09T08:00:09;7.22;;;1.98;;
13801;SDS011;6972;51.518;6.918;2022-09-09T08:02:35;10.90;;;2.53;;
13801;SDS011;6972;51.518;6.918;2022-09-09T08:05:01;8.50;;;2.10;;
13801;SDS011;6972;51.518;6.918;2022-09-09T08:07:27;11.40;;;2.10;;
13801;SDS011;6972;51.518;6.918;2022-09-09T08:09:53;10.82;;;2.63;;
13801;SDS011;6972;51.518;6.918;2022-09-09T08:12:20;11.00;;;2.33;;
13801;SDS011;6972;51.518;6.918;2022-09-09T08:14:49;8.70;;;2.13;;
13801;SDS011;6972;51.518;6.918;2022-09-09T08:17:16;8.43;;;2.03;;
13801;SDS011;6972;51.518;6.918;2022-09-09T08:19:42;7.10;;;2.08;;
13801;SDS011;6972;51.518;6.918;2022-09-09T08:22:07;15.65;;;2.15;;
13801;SDS011;6972;51.518;6.918;2022-09-09T08:24:33;8.18;;;2.10;;
13801;SDS011;6972;51.518;6.918;2022-09-09T08:26:59;10.93;;;1.95;;
13801;SDS011;6972;51.518;6.918;2022-09-09T08:29:26;10.32;;;2.00;;
13801;SDS011;6972;51.518;6.918;2022-09-09T08:31:54;9.38;;;1.88;;
13801;SDS011;6972;51.518;6.918;2022-09-09T08:34:22;6.50;;;2.08;;
13801;SDS011;6972;51.518;6.918;2022-09-09T08:36:49;5.97;;;2.20;;
13801;SDS011;6972;51.518;6.918;2022-09-09T08:39:17;8.20;;;2.20;;
13801;SDS011;6972;51.518;6.918;2022-09-09T08:53:04;7.88;;;1.67;;
13801;SDS011;6972;51.518;6.918;2022-09-09T08:55:41;7.63;;;2.03;;
13801;SDS011;6972;51.518;6.918;2022-09-09T09:01:22;6.38;;;2.00;;
13801;SDS011;6972;51.518;6.918;2022-09-09T09:11:50;7.47;;;1.75;;
13801;SDS011;6972;51.518;6.918;2022-09-09T09:14:21;4.75;;;1.80;;
13801;SDS011;6972;51.518;6.918;2022-09-09T09:19:34;5.90;;;1.75;;
13801;SDS011;6972;51.518;6.918;2022-09-09T09:27:16;7.00;;;2.10;;
13801;SDS011;6972;51.518;6.918;2022-09-09T09:29:53;11.75;;;2.00;;
13801;SDS011;6972;51.518;6.918;2022-09-09T09:32:22;6.07;;;1.77;;
13801;SDS011;6972;51.518;6.918;2022-09-09T09:34:51;8.23;;;2.08;;
13801;SDS011;6972;51.518;6.918;2022-09-09T09:37:33;6.53;;;1.60;;
13801;SDS011;6972;51.518;6.918;2022-09-09T09:40:12;7.30;;;1.95;;
13801;SDS011;6972;51.518;6.918;2022-09-09T09:42:48;4.88;;;1.55;;
13801;SDS011;6972;51.518;6.918;2022-09-09T09:48:08;5.93;;;1.83;;
13801;SDS011;6972;51.518;6.918;2022-09-09T09:50:39;7.43;;;1.85;;
13801;SDS011;6972;51.518;6.918;2022-09-09T09:53:22;7.53;;;1.98;;
13801;SDS011;6972;51.518;6.918;2022-09-09T09:58:30;6.57;;;1.80;;
13801;SDS011;6972;51.518;6.918;2022-09-09T10:00:59;6.80;;;1.75;;
13801;SDS011;6972;51.518;6.918;2022-09-09T10:03:32;6.45;;;1.85;;
13801;SDS011;6972;51.518;6.918;2022-09-09T10:06:02;6.80;;;1.90;;
13801;SDS011;6972;51.518;6.918;2022-09-09T10:08:28;4.38;;;1.73;;
13801;SDS011;6972;51.518;6.918;2022-09-09T10:19:01;6.97;;;2.08;;
13801;SDS011;6972;51.518;6.918;2022-09-09T10:24:01;6.60;;;1.70;;
13801;SDS011;6972;51.518;6.918;2022-09-09T10:29:32;7.40;;;1.85;;
13801;SDS011;6972;51.518;6.918;2022-09-09T10:32:20;6.80;;;1.92;;
13801;SDS011;6972;51.518;6.918;2022-09-09T10:43:13;5.65;;;1.52;;
13801;SDS011;6972;51.518;6.918;2022-09-09T10:55:17;4.50;;;1.48;;
13801;SDS011;6972;51.518;6.918;2022-09-09T10:57:37;3.28;;;1.30;;
13801;SDS011;6972;51.518;6.918;2022-09-09T11:00:18;5.13;;;1.90;;
13801;SDS011;6972;51.518;6.918;2022-09-09T11:02:44;4.13;;;1.50;;
13801;SDS011;6972;51.518;6.918;2022-09-09T11:05:21;7.25;;;2.03;;
13801;SDS011;6972;51.518;6.918;2022-09-09T11:07:58;3.70;;;1.30;;
13801;SDS011;6972;51.518;6.918;2022-09-09T11:10:53;3.35;;;1.30;;
13801;SDS011;6972;51.518;6.918;2022-09-09T11:19:02;5.25;;;1.40;;
13801;SDS011;6972;51.518;6.918;2022-09-09T11:21:36;6.00;;;1.58;;
13801;SDS011;6972;51.518;6.918;2022-09-09T11:24:11;3.40;;;1.45;;
13801;SDS011;6972;51.518;6.918;2022-09-09T11:26:42;3.95;;;1.42;;
13801;SDS011;6972;51.518;6.918;2022-09-09T11:34:35;4.35;;;1.35;;
13801;SDS011;6972;51.518;6.918;2022-09-09T11:37:28;6.22;;;1.42;;
13801;SDS011;6972;51.518;6.918;2022-09-09T11:42:35;6.80;;;1.60;;
13801;SDS011;6972;51.518;6.918;2022-09-09T11:45:11;4.80;;;1.50;;
13801;SDS011;6972;51.518;6.918;2022-09-09T11:47:54;3.83;;;1.45;;
13801;SDS011;6972;51.518;6.918;2022-09-09T11:52:50;4.57;;;1.25;;
13801;SDS011;6972;51.518;6.918;2022-09-09T11:55:27;4.10;;;1.60;;
13801;SDS011;6972;51.518;6.918;2022-09-09T11:58:04;4.38;;;1.30;;
13801;SDS011;6972;51.518;6.918;2022-09-09T12:00:31;4.00;;;1.52;;
13801;SDS011;6972;51.518;6.918;2022-09-09T12:03:02;5.68;;;1.10;;
13801;SDS011;6972;51.518;6.918;2022-09-09T12:05:36;4.50;;;1.55;;
13801;SDS011;6972;51.518;6.918;2022-09-09T12:08:10;4.00;;;1.50;;
13801;SDS011;6972;51.518;6.918;2022-09-09T12:10:52;5.45;;;1.35;;
13801;SDS011;6972;51.518;6.918;2022-09-09T12:13:25;5.15;;;1.40;;
13801;SDS011;6972;51.518;6.918;2022-09-09T12:15:53;3.85;;;1.30;;
13801;SDS011;6972;51.518;6.918;2022-09-09T12:18:31;4.65;;;1.30;;
13801;SDS011;6972;51.518;6.918;2022-09-09T12:21:05;2.92;;;1.40;;
13801;SDS011;6972;51.518;6.918;2022-09-09T12:23:52;1.90;;;1.13;;
13801;SDS011;6972;51.518;6.918;2022-09-09T12:34:29;7.57;;;1.52;;
13801;SDS011;6972;51.518;6.918;2022-09-09T12:37:04;5.93;;;1.50;;
13801;SDS011;6972;51.518;6.918;2022-09-09T12:39:52;4.72;;;1.40;;
13801;SDS011;6972;51.518;6.918;2022-09-09T12:42:21;5.25;;;1.52;;
13801;SDS011;6972;51.518;6.918;2022-09-09T12:45:16;4.32;;;1.42;;
13801;SDS011;6972;51.518;6.918;2022-09-09T12:47:48;2.25;;;1.17;;
13801;SDS011;6972;51.518;6.918;2022-09-09T12:50:23;4.55;;;1.27;;
13801;SDS011;6972;51.518;6.918;2022-09-09T12:52:51;11.48;;;2.08;;
13801;SDS011;6972;51.518;6.918;2022-09-09T12:55:31;8.35;;;1.85;;
13801;SDS011;6972;51.518;6.918;2022-09-09T12:58:00;3.33;;;1.30;;
13801;SDS011;6972;51.518;6.918;2022-09-09T13:00:29;4.55;;;1.30;;
13801;SDS011;6972;51.518;6.918;2022-09-09T13:02:56;3.75;;;1.52;;
13801;SDS011;6972;51.518;6.918;2022-09-09T13:05:27;3.40;;;1.58;;
13801;SDS011;6972;51.518;6.918;2022-09-09T13:08:06;3.58;;;1.60;;
13801;SDS011;6972;51.518;6.918;2022-09-09T13:13:40;4.53;;;1.50;;
13801;SDS011;6972;51.518;6.918;2022-09-09T13:16:18;4.97;;;1.50;;
13801;SDS011;6972;51.518;6.918;2022-09-09T13:18:50;6.65;;;1.65;;
13801;SDS011;6972;51.518;6.918;2022-09-09T13:21:16;4.72;;;1.73;;
13801;SDS011;6972;51.518;6.918;2022-09-09T13:23:48;5.95;;;1.50;;
13801;SDS011;6972;51.518;6.918;2022-09-09T13:28:51;5.93;;;1.65;;
13801;SDS011;6972;51.518;6.918;2022-09-09T13:33:46;6.15;;;1.80;;
13801;SDS011;6972;51.518;6.918;2022-09-09T13:36:13;5.20;;;1.73;;
13801;SDS011;6972;51.518;6.918;2022-09-09T13:41:19;3.90;;;2.03;;
13801;SDS011;6972;51.518;6.918;2022-09-09T13:43:49;5.90;;;1.80;;
13801;SDS011;6972;51.518;6.918;2022-09-09T13:49:39;5.15;;;2.00;;
13801;SDS011;6972;51.518;6.918;2022-09-09T13:51:48;5.10;;;2.08;;
13801;SDS011;6972;51.518;6.918;2022-09-09T13:54:16;4.30;;;2.00;;
13801;SDS011;6972;51.518;6.918;2022-09-09T13:56:43;6.10;;;1.90;;
13801;SDS011;6972;51.518;6.918;2022-09-09T13:59:13;8.77;;;2.63;;
13801;SDS011;6972;51.518;6.918;2022-09-09T14:01:40;9.95;;;2.20;;
13801;SDS011;6972;51.518;6.918;2022-09-09T14:04:06;6.15;;;2.53;;
13801;SDS011;6972;51.518;6.918;2022-09-09T14:06:34;5.25;;;2.50;;
13801;SDS011;6972;51.518;6.918;2022-09-09T14:09:03;7.60;;;2.45;;
13801;SDS011;6972;51.518;6.918;2022-09-09T14:11:29;4.82;;;2.20;;
13801;SDS011;6972;51.518;6.918;2022-09-09T14:13:55;7.35;;;2.22;;
13801;SDS011;6972;51.518;6.918;2022-09-09T14:16:21;2.65;;;1.40;;
13801;SDS011;6972;51.518;6.918;2022-09-09T14:18:47;4.30;;;1.80;;
13801;SDS011;6972;51.518;6.918;2022-09-09T14:21:13;6.95;;;1.80;;
13801;SDS011;6972;51.518;6.918;2022-09-09T14:23:40;5.72;;;1.70;;
13801;SDS011;6972;51.518;6.918;2022-09-09T14:26:06;4.28;;;1.50;;
13801;SDS011;6972;51.518;6.918;2022-09-09T14:28:33;5.68;;;2.08;;
13801;SDS011;6972;51.518;6.918;2022-09-09T14:31:00;6.50;;;1.70;;
13801;SDS011;6972;51.518;6.918;2022-09-09T14:33:26;6.00;;;1.45;;
13801;SDS011;6972;51.518;6.918;2022-09-09T14:35:57;5.18;;;1.70;;
13801;SDS011;6972;51.518;6.918;2022-09-09T14:38:34;4.30;;;1.48;;
13801;SDS011;6972;51.518;6.918;2022-09-09T14:41:04;3.92;;;1.63;;
13801;SDS011;6972;51.518;6.918;2022-09-09T14:43:35;4.10;;;1.58;;
13801;SDS011;6972;51.518;6.918;2022-09-09T14:46:06;3.88;;;1.45;;
13801;SDS011;6972;51.518;6.918;2022-09-09T14:48:34;6.05;;;2.08;;
13801;SDS011;6972;51.518;6.918;2022-09-09T14:51:14;5.10;;;1.85;;
13801;SDS011;6972;51.518;6.918;2022-09-09T14:53:47;6.30;;;2.17;;
13801;SDS011;6972;51.518;6.918;2022-09-09T14:56:16;2.78;;;1.45;;
13801;SDS011;6972;51.518;6.918;2022-09-09T14:58:48;3.83;;;1.58;;
13801;SDS011;6972;51.518;6.918;2022-09-09T15:01:15;3.67;;;1.40;;
13801;SDS011;6972;51.518;6.918;2022-09-09T15:03:42;1.27;;;0.90;;
13801;SDS011;6972;51.518;6.918;2022-09-09T15:06:14;1.60;;;0.95;;
13801;SDS011;6972;51.518;6.918;2022-09-09T15:08:40;2.13;;;1.00;;
13801;SDS011;6972;51.518;6.918;2022-09-09T15:11:07;5.93;;;1.20;;
13801;SDS011;6972;51.518;6.918;2022-09-09T15:13:34;3.13;;;1.30;;
13801;SDS011;6972;51.518;6.918;2022-09-09T15:18:31;5.22;;;1.10;;
13801;SDS011;6972;51.518;6.918;2022-09-09T15:20:58;1.98;;;1.00;;
13801;SDS011;6972;51.518;6.918;2022-09-09T15:23:33;2.78;;;1.30;;
13801;SDS011;6972;51.518;6.918;2022-09-09T15:25:59;4.60;;;1.20;;
13801;SDS011;6972;51.518;6.918;2022-09-09T15:28:26;4.07;;;1.08;;
13801;SDS011;6972;51.518;6.918;2022-09-09T15:30:52;3.42;;;1.23;;
13801;SDS011;6972;51.518;6.918;2022-09-09T15:33:19;3.40;;;1.48;;
13801;SDS011;6972;51.518;6.918;2022-09-09T15:35:46;5.10;;;1.88;;
13801;SDS011;6972;51.518;6.918;2022-09-09T15:38:12;4.00;;;1.77;;
13801;SDS011;6972;51.518;6.918;2022-09-09T15:40:39;2.92;;;1.58;;
13801;SDS011;6972;51.518;6.918;2022-09-09T15:43:05;4.35;;;1.50;;
13801;SDS011;6972;51.518;6.918;2022-09-09T15:45:32;2.38;;;1.30;;
13801;SDS011;6972;51.518;6.918;2022-09-09T15:48:01;3.47;;;1.42;;
13801;SDS011;6972;51.518;6.918;2022-09-09T15:50:28;4.07;;;1.40;;
13801;SDS011;6972;51.518;6.918;2022-09-09T15:52:56;5.38;;;2.00;;
13801;SDS011;6972;51.518;6.918;2022-09-09T15:55:22;3.85;;;1.80;;
13801;SDS011;6972;51.518;6.918;2022-09-09T15:57:51;3.70;;;1.90;;
13801;SDS011;6972;51.518;6.918;2022-09-09T16:00:18;2.60;;;1.58;;
13801;SDS011;6972;51.518;6.918;2022-09-09T16:02:48;5.78;;;1.40;;
13801;SDS011;6972;51.518;6.918;2022-09-09T16:05:14;6.20;;;1.58;;
13801;SDS011;6972;51.518;6.918;2022-09-09T16:07:39;4.47;;;1.40;;
13801;SDS011;6972;51.518;6.918;2022-09-09T16:10:07;3.08;;;1.45;;
13801;SDS011;6972;51.518;6.918;2022-09-09T16:12:34;3.88;;;1.50;;
13801;SDS011;6972;51.518;6.918;2022-09-09T16:14:59;5.22;;;1.40;;
13801;SDS011;6972;51.518;6.918;2022-09-09T16:17:26;5.10;;;1.48;;
13801;SDS011;6972;51.518;6.918;2022-09-09T16:19:52;4.43;;;1.23;;
13801;SDS011;6972;51.518;6.918;2022-09-09T16:22:19;4.10;;;1.20;;
13801;SDS011;6972;51.518;6.918;2022-09-09T16:24:45;2.88;;;1.48;;
13801;SDS011;6972;51.518;6.918;2022-09-09T16:27:11;3.50;;;1.58;;
13801;SDS011;6972;51.518;6.918;2022-09-09T16:29:37;2.47;;;1.40;;
13801;SDS011;6972;51.518;6.918;2022-09-09T16:32:03;2.88;;;1.40;;
13801;SDS011;6972;51.518;6.918;2022-09-09T16:34:29;3.85;;;1.20;;
13801;SDS011;6972;51.518;6.918;2022-09-09T16:36:55;2.70;;;1.27;;
13801;SDS011;6972;51.518;6.918;2022-09-09T16:39:21;3.70;;;1.30;;
13801;SDS011;6972;51.518;6.918;2022-09-09T16:41:47;1.95;;;1.13;;
13801;SDS011;6972;51.518;6.918;2022-09-09T16:44:14;1.85;;;1.13;;
13801;SDS011;6972;51.518;6.918;2022-09-09T16:46:42;1.83;;;0.90;;
13801;SDS011;6972;51.518;6.918;2022-09-09T16:49:10;5.43;;;1.30;;
13801;SDS011;6972;51.518;6.918;2022-09-09T16:51:38;2.20;;;1.00;;
13801;SDS011;6972;51.518;6.918;2022-09-09T16:54:06;1.67;;;1.13;;
13801;SDS011;6972;51.518;6.918;2022-09-09T16:56:33;1.95;;;1.10;;
13801;SDS011;6972;51.518;6.918;2022-09-09T16:59:03;1.77;;;1.20;;
13801;SDS011;6972;51.518;6.918;2022-09-09T17:01:34;4.03;;;1.30;;
13801;SDS011;6972;51.518;6.918;2022-09-09T17:04:06;3.55;;;1.30;;
13801;SDS011;6972;51.518;6.918;2022-09-09T17:06:34;2.72;;;1.30;;
13801;SDS011;6972;51.518;6.918;2022-09-09T17:09:02;3.22;;;1.40;;
13801;SDS011;6972;51.518;6.918;2022-09-09T17:11:30;4.22;;;1.35;;
13801;SDS011;6972;51.518;6.918;2022-09-09T17:13:57;3.88;;;1.40;;
13801;SDS011;6972;51.518;6.918;2022-09-09T17:16:24;3.13;;;1.25;;
13801;SDS011;6972;51.518;6.918;2022-09-09T17:18:52;4.00;;;1.30;;
13801;SDS011;6972;51.518;6.918;2022-09-09T17:21:19;2.50;;;1.50;;
13801;SDS011;6972;51.518;6.918;2022-09-09T17:23:46;5.03;;;1.42;;
13801;SDS011;6972;51.518;6.918;2022-09-09T17:26:14;4.88;;;2.13;;
13801;SDS011;6972;51.518;6.918;2022-09-09T17:28:42;4.40;;;1.85;;
13801;SDS011;6972;51.518;6.918;2022-09-09T17:31:09;2.45;;;1.40;;
13801;SDS011;6972;51.518;6.918;2022-09-09T17:33:41;3.15;;;1.80;;
13801;SDS011;6972;51.518;6.918;2022-09-09T17:36:10;4.78;;;2.08;;
13801;SDS011;6972;51.518;6.918;2022-09-09T17:38:38;4.68;;;1.80;;
13801;SDS011;6972;51.518;6.918;2022-09-09T17:41:05;4.05;;;1.75;;
13801;SDS011;6972;51.518;6.918;2022-09-09T17:43:32;5.03;;;1.85;;
13801;SDS011;6972;51.518;6.918;2022-09-09T17:46:12;6.72;;;1.95;;
13801;SDS011;6972;51.518;6.918;2022-09-09T17:48:38;6.90;;;2.03;;